createdAt,value
2018-07-31T00:00:04.644Z,29.7
2018-07-31T00:02:07.890Z,29.7
2018-07-31T00:04:04.643Z,29.7
2018-07-31T00:06:15.420Z,29.5
2018-07-31T00:08:07.710Z,29.3
2018-07-31T00:12:05.018Z,29.3
2018-07-31T00:14:04.906Z,29.3
2018-07-31T00:16:05.625Z,29.3
2018-07-31T00:18:05.508Z,29.4
2018-07-31T00:20:05.158Z,29.4
2018-07-31T00:22:07.394Z,29.4
2018-07-31T00:24:05.087Z,29.4
2018-07-31T00:26:07.328Z,29.5
2018-07-31T00:28:08.217Z,29.5
2018-07-31T00:30:05.436Z,29.5
2018-07-31T00:32:05.191Z,29.6
2018-07-31T00:34:04.949Z,29.6
2018-07-31T00:36:07.161Z,29.5
2018-07-31T00:38:05.390Z,29.5
2018-07-31T00:40:05.092Z,29.4
2018-07-31T00:42:04.764Z,29.5
2018-07-31T00:44:10.516Z,29.5
2018-07-31T00:46:05.276Z,29.5
2018-07-31T00:48:05.029Z,29.5
2018-07-31T00:50:05.238Z,29.6
2018-07-31T00:52:04.931Z,29.6
2018-07-31T00:54:05.580Z,29.5
2018-07-31T00:56:05.240Z,29.5
2018-07-31T00:58:04.969Z,29.5
2018-07-31T01:00:04.641Z,29.5
2018-07-31T01:02:05.335Z,29.4
2018-07-31T01:04:07.551Z,29.3
2018-07-31T01:06:05.204Z,29.3
2018-07-31T01:08:04.931Z,29.3
2018-07-31T01:10:04.689Z,29.3
2018-07-31T01:12:09.970Z,29.4
2018-07-31T01:14:04.671Z,29.4
2018-07-31T01:16:04.883Z,29.5
2018-07-31T01:18:07.817Z,29.4
2018-07-31T01:20:05.673Z,29.4
2018-07-31T01:22:05.321Z,29.4
2018-07-31T01:24:05.521Z,29.4
2018-07-31T01:26:05.273Z,29.4
2018-07-31T01:28:10.057Z,29.4
2018-07-31T01:30:04.794Z,29.4
2018-07-31T01:32:05.499Z,29.4
2018-07-31T01:34:10.335Z,29.4
2018-07-31T01:36:15.115Z,29.4
2018-07-31T01:38:04.854Z,29.5
2018-07-31T01:40:08.063Z,29.4
2018-07-31T01:42:07.819Z,29.4
2018-07-31T01:44:05.508Z,29.4
2018-07-31T01:46:05.280Z,29.3
2018-07-31T01:48:10.195Z,29.4
2018-07-31T01:50:04.898Z,29.4
2018-07-31T01:52:15.211Z,29.3
2018-07-31T01:54:04.879Z,29.3
2018-07-31T01:56:05.545Z,29.3
2018-07-31T01:58:07.786Z,29.3
2018-07-31T02:00:05.478Z,29.3
2018-07-31T02:02:05.169Z,29.3
2018-07-31T02:04:07.501Z,29.2
2018-07-31T02:06:07.771Z,29.1
2018-07-31T02:08:08.061Z,29.2
2018-07-31T02:10:04.798Z,29.2
2018-07-31T02:12:07.999Z,29.2
2018-07-31T02:14:04.734Z,29.2
2018-07-31T02:16:05.557Z,29.2
2018-07-31T02:18:05.443Z,29.2
2018-07-31T02:20:05.193Z,29.2
2018-07-31T02:22:04.903Z,29.2
2018-07-31T02:24:04.626Z,29.2
2018-07-31T02:26:05.302Z,29.2
2018-07-31T02:28:05.139Z,29.2
2018-07-31T02:30:04.920Z,29.2
2018-07-31T02:32:08.111Z,29.2
2018-07-31T02:34:04.870Z,29.2
2018-07-31T02:36:07.643Z,29.2
2018-07-31T02:38:07.919Z,29.2
2018-07-31T02:40:04.771Z,29.2
2018-07-31T02:42:08.076Z,29.1
2018-07-31T02:44:05.288Z,29.1
2018-07-31T02:46:05.544Z,29.1
2018-07-31T02:48:07.763Z,29.2
2018-07-31T02:50:04.959Z,29.1
2018-07-31T02:52:04.701Z,29.1
2018-07-31T02:54:04.908Z,29.1
2018-07-31T02:56:05.630Z,29.1
2018-07-31T02:58:05.397Z,29.1
2018-07-31T03:00:05.509Z,29.1
2018-07-31T03:02:05.282Z,29.1
2018-07-31T03:04:04.966Z,29.1
2018-07-31T03:06:04.700Z,29.1
2018-07-31T03:08:05.397Z,29.1
2018-07-31T03:10:04.903Z,29.1
2018-07-31T03:12:04.767Z,29.1
2018-07-31T03:14:18.139Z,29
2018-07-31T03:16:05.394Z,29
2018-07-31T03:18:05.333Z,29
2018-07-31T03:20:05.261Z,29
2018-07-31T03:22:04.982Z,28.9
2018-07-31T03:24:07.294Z,28.9
2018-07-31T03:26:07.575Z,28.9
2018-07-31T03:28:07.383Z,28.8
2018-07-31T03:30:12.890Z,28.8
2018-07-31T03:32:05.121Z,28.8
2018-07-31T03:34:07.424Z,28.8
2018-07-31T03:36:05.088Z,28.8
2018-07-31T03:38:04.748Z,28.8
2018-07-31T03:40:05.475Z,28.8
2018-07-31T03:42:05.177Z,28.8
2018-07-31T03:44:04.817Z,28.8
2018-07-31T03:46:05.538Z,28.8
2018-07-31T03:48:12.789Z,28.8
2018-07-31T03:50:10.536Z,28.7
2018-07-31T03:52:05.303Z,28.8
2018-07-31T03:54:04.999Z,28.8
2018-07-31T03:56:07.202Z,28.7
2018-07-31T03:58:04.857Z,28.7
2018-07-31T04:00:05.515Z,28.7
2018-07-31T04:02:05.170Z,28.7
2018-07-31T04:04:09.993Z,28.8
2018-07-31T04:06:04.667Z,28.7
2018-07-31T04:08:07.856Z,28.8
2018-07-31T04:10:05.561Z,28.7
2018-07-31T04:12:05.266Z,28.8
2018-07-31T04:14:05.500Z,28.8
2018-07-31T04:16:14.869Z,28.7
2018-07-31T04:18:07.271Z,28.7
2018-07-31T04:20:05.035Z,28.7
2018-07-31T04:22:04.727Z,28.7
2018-07-31T04:24:05.695Z,28.6
2018-07-31T04:26:05.408Z,28.6
2018-07-31T04:28:05.632Z,28.6
2018-07-31T04:30:08.030Z,28.5
2018-07-31T04:32:07.701Z,28.4
2018-07-31T04:34:05.504Z,28.4
2018-07-31T04:36:07.793Z,28.5
2018-07-31T04:38:05.570Z,28.5
2018-07-31T04:40:10.950Z,28.6
2018-07-31T04:42:05.341Z,28.6
2018-07-31T04:44:07.577Z,28.7
2018-07-31T04:46:05.274Z,28.7
2018-07-31T04:48:04.935Z,28.7
2018-07-31T04:50:04.664Z,28.8
2018-07-31T04:52:05.339Z,28.7
2018-07-31T04:54:08.073Z,28.7
2018-07-31T04:56:04.882Z,28.7
2018-07-31T04:58:10.655Z,28.8
2018-07-31T05:00:05.339Z,28.8
2018-07-31T05:02:05.550Z,28.9
2018-07-31T05:04:07.306Z,28.8
2018-07-31T05:06:05.015Z,28.9
2018-07-31T05:08:05.299Z,28.9
2018-07-31T05:10:04.987Z,28.8
2018-07-31T05:12:09.754Z,28.8
2018-07-31T05:14:08.102Z,28.8
2018-07-31T05:16:04.837Z,28.8
2018-07-31T05:18:04.717Z,28.8
2018-07-31T05:20:07.994Z,28.6
2018-07-31T05:22:04.654Z,28.6
2018-07-31T05:24:07.848Z,28.7
2018-07-31T05:26:05.578Z,28.7
2018-07-31T05:28:07.751Z,28.9
2018-07-31T05:30:07.927Z,28.9
2018-07-31T05:32:05.668Z,28.9
2018-07-31T05:34:05.378Z,28.9
2018-07-31T05:36:05.051Z,29
2018-07-31T05:38:04.768Z,29
2018-07-31T05:40:05.493Z,29
2018-07-31T05:42:05.235Z,29.1
2018-07-31T05:44:04.903Z,29.1
2018-07-31T05:46:05.597Z,29.1
2018-07-31T05:48:05.399Z,29.1
2018-07-31T05:50:05.085Z,29.1
2018-07-31T05:52:04.753Z,29.2
2018-07-31T05:54:04.738Z,29.2
2018-07-31T05:56:07.600Z,29.3
2018-07-31T05:58:10.337Z,29.3
2018-07-31T06:00:05.018Z,29.3
2018-07-31T06:02:04.785Z,29.3
2018-07-31T06:04:05.454Z,29.3
2018-07-31T06:06:07.728Z,29.4
2018-07-31T06:08:05.034Z,29.3
2018-07-31T06:10:04.795Z,29.4
2018-07-31T06:12:10.540Z,29.4
2018-07-31T06:14:05.253Z,29.4
2018-07-31T06:16:05.003Z,29.4
2018-07-31T06:18:04.856Z,29.5
2018-07-31T06:20:05.009Z,29.5
2018-07-31T06:22:05.181Z,29.5
2018-07-31T06:24:04.834Z,29.6
2018-07-31T06:26:05.148Z,29.6
2018-07-31T06:28:07.384Z,29.6
2018-07-31T06:30:10.148Z,29.6
2018-07-31T06:32:04.886Z,29.6
2018-07-31T06:34:08.112Z,29.7
2018-07-31T06:36:07.372Z,29.7
2018-07-31T06:38:05.605Z,29.6
2018-07-31T06:40:05.285Z,29.7
2018-07-31T06:42:04.997Z,29.7
2018-07-31T06:44:05.312Z,29.7
2018-07-31T06:46:05.462Z,29.7
2018-07-31T06:48:05.418Z,29.6
2018-07-31T06:50:04.739Z,29.6
2018-07-31T06:52:05.049Z,29.6
2018-07-31T06:54:13.139Z,29.6
2018-07-31T06:56:04.879Z,29.6
2018-07-31T06:58:04.751Z,29.5
2018-07-31T07:00:08.245Z,29.6
2018-07-31T07:02:10.120Z,29.6
2018-07-31T07:04:05.070Z,29.6
2018-07-31T07:06:07.295Z,29.6
2018-07-31T07:08:05.012Z,29.6
2018-07-31T07:10:04.719Z,29.4
2018-07-31T07:12:05.510Z,29.4
2018-07-31T07:14:10.445Z,29.4
2018-07-31T07:16:10.246Z,29.3
2018-07-31T07:18:05.167Z,29.3
2018-07-31T07:20:07.975Z,29.4
2018-07-31T07:22:07.182Z,29.4
2018-07-31T07:24:05.384Z,29.4
2018-07-31T07:26:05.085Z,29.4
2018-07-31T07:28:07.572Z,29.2
2018-07-31T07:30:05.256Z,29.3
2018-07-31T07:32:07.887Z,29.5
2018-07-31T07:34:05.593Z,29.5
2018-07-31T07:36:05.541Z,29.5
2018-07-31T07:38:05.334Z,29.5
2018-07-31T07:40:07.564Z,29.6
2018-07-31T07:42:05.489Z,29.6
2018-07-31T07:44:05.418Z,29.6
2018-07-31T07:46:05.450Z,29.6
2018-07-31T07:48:05.258Z,29.5
2018-07-31T07:50:04.961Z,29.5
2018-07-31T07:52:05.177Z,29.5
2018-07-31T07:54:05.509Z,29.4
2018-07-31T07:56:04.931Z,29.6
2018-07-31T07:58:10.727Z,29.3
2018-07-31T08:00:05.392Z,29.3
2018-07-31T08:02:04.660Z,29.4
2018-07-31T08:04:05.406Z,29.6
2018-07-31T08:06:07.741Z,29.4
2018-07-31T08:08:05.482Z,29.4
2018-07-31T08:10:05.367Z,29.3
2018-07-31T08:12:07.760Z,29.3
2018-07-31T08:14:05.536Z,29.2
2018-07-31T08:16:05.409Z,29.3
2018-07-31T08:18:05.300Z,29.2
2018-07-31T08:20:07.518Z,29.2
2018-07-31T08:22:07.785Z,29.2
2018-07-31T08:24:05.148Z,29.2
2018-07-31T08:26:04.923Z,29.3
2018-07-31T08:28:04.685Z,29.3
2018-07-31T08:30:07.978Z,29.5
2018-07-31T08:32:04.882Z,29.5
2018-07-31T08:34:04.875Z,29.5
2018-07-31T08:36:05.577Z,29.5
2018-07-31T08:38:07.813Z,29.5
2018-07-31T08:40:05.485Z,29.4
2018-07-31T08:42:10.194Z,29.7
2018-07-31T08:44:04.940Z,29.7
2018-07-31T08:46:07.805Z,29.6
2018-07-31T08:48:08.046Z,29.7
2018-07-31T08:50:04.773Z,29.7
2018-07-31T08:52:05.428Z,29.7
2018-07-31T08:54:07.209Z,29.6
2018-07-31T08:56:04.938Z,29.6
2018-07-31T08:58:04.631Z,29.5
2018-07-31T09:00:05.553Z,29.4
2018-07-31T09:02:10.304Z,29.3
2018-07-31T09:04:05.573Z,29.3
2018-07-31T09:06:10.312Z,29.3
2018-07-31T09:08:10.061Z,29.3
2018-07-31T09:10:08.104Z,29.6
2018-07-31T09:12:05.319Z,29.6
2018-07-31T09:14:08.125Z,29.6
2018-07-31T09:16:04.792Z,29.6
2018-07-31T09:18:04.734Z,29.6
2018-07-31T09:20:05.417Z,29.6
2018-07-31T09:22:05.091Z,29.5
2018-07-31T09:24:04.765Z,29.6
2018-07-31T09:26:07.979Z,29.7
2018-07-31T09:28:05.086Z,29.6
2018-07-31T09:30:04.828Z,29.6
2018-07-31T09:32:05.237Z,29.7
2018-07-31T09:34:04.911Z,29.6
2018-07-31T09:36:05.647Z,29.7
2018-07-31T09:38:07.482Z,29.8
2018-07-31T09:40:05.000Z,29.8
2018-07-31T09:42:09.765Z,29.9
2018-07-31T09:44:05.456Z,29.8
2018-07-31T09:46:05.556Z,29.8
2018-07-31T09:48:05.344Z,29.9
2018-07-31T09:50:05.088Z,30
2018-07-31T09:52:04.861Z,30
2018-07-31T09:54:08.077Z,30.1
2018-07-31T09:56:05.365Z,30.1
2018-07-31T09:58:05.081Z,30.1
2018-07-31T10:00:05.379Z,30.1
2018-07-31T10:02:05.048Z,30
2018-07-31T10:04:04.746Z,30
2018-07-31T10:06:04.947Z,29.9
2018-07-31T10:08:04.620Z,29.8
2018-07-31T10:10:05.288Z,29.9
2018-07-31T10:12:05.021Z,29.9
2018-07-31T10:14:05.524Z,30
2018-07-31T10:16:05.210Z,29.9
2018-07-31T10:18:07.838Z,29.9
2018-07-31T10:20:04.939Z,29.8
2018-07-31T10:22:04.708Z,29.9
2018-07-31T10:24:05.616Z,30
2018-07-31T10:26:05.506Z,29.9
2018-07-31T10:28:07.710Z,29.8
2018-07-31T10:30:04.920Z,29.9
2018-07-31T10:32:07.169Z,29.8
2018-07-31T10:34:12.457Z,29.8
2018-07-31T10:36:07.723Z,29.8
2018-07-31T10:38:05.008Z,29.8
2018-07-31T10:40:07.203Z,29.8
2018-07-31T10:42:05.168Z,29.8
2018-07-31T10:44:07.938Z,29.8
2018-07-31T10:46:04.651Z,29.8
2018-07-31T10:48:05.374Z,29.8
2018-07-31T10:50:05.574Z,29.9
2018-07-31T10:52:05.296Z,29.9
2018-07-31T10:54:08.060Z,30
2018-07-31T10:56:09.794Z,30
2018-07-31T10:58:08.000Z,30.1
2018-07-31T11:00:05.335Z,30.1
2018-07-31T11:02:14.846Z,30.1
2018-07-31T11:04:10.618Z,30
2018-07-31T11:06:06.129Z,30
2018-07-31T11:08:04.889Z,30.1
2018-07-31T11:10:05.589Z,30.1
2018-07-31T11:12:05.252Z,30.1
2018-07-31T11:14:10.097Z,30
2018-07-31T11:16:05.470Z,30
2018-07-31T11:18:12.945Z,30.1
2018-07-31T11:20:04.624Z,30.1
2018-07-31T11:22:05.300Z,30.2
2018-07-31T11:24:05.647Z,30.1
2018-07-31T11:26:05.525Z,30.1
2018-07-31T11:28:05.534Z,30.1
2018-07-31T11:30:10.458Z,30
2018-07-31T11:32:04.700Z,30.1
2018-07-31T11:34:05.457Z,30
2018-07-31T11:36:05.364Z,30
2018-07-31T11:38:05.548Z,30.1
2018-07-31T11:40:05.272Z,30
2018-07-31T11:42:04.997Z,30
2018-07-31T11:44:07.330Z,30.1
2018-07-31T11:46:05.022Z,30.1
2018-07-31T11:48:05.202Z,30.2
2018-07-31T11:50:04.941Z,30.1
2018-07-31T11:52:05.380Z,30.1
2018-07-31T11:54:05.097Z,30.1
2018-07-31T11:56:04.864Z,30
2018-07-31T11:58:05.579Z,30.1
2018-07-31T12:00:05.231Z,30
2018-07-31T12:02:04.920Z,30.1
2018-07-31T12:04:04.622Z,29.9
2018-07-31T12:06:10.477Z,30
2018-07-31T12:08:07.755Z,29.9
2018-07-31T12:10:05.005Z,29.9
2018-07-31T12:12:07.306Z,30.1
2018-07-31T12:14:05.041Z,30.1
2018-07-31T12:16:04.723Z,30.1
2018-07-31T12:18:04.862Z,30.2
2018-07-31T12:20:05.523Z,30.2
2018-07-31T12:22:07.259Z,30.2
2018-07-31T12:24:10.492Z,30.2
2018-07-31T12:26:08.095Z,30.2
2018-07-31T12:28:05.269Z,30.2
2018-07-31T12:30:05.507Z,30.1
2018-07-31T12:32:07.713Z,30.1
2018-07-31T12:34:05.361Z,30.1
2018-07-31T12:36:05.020Z,30.1
2018-07-31T12:38:07.408Z,30
2018-07-31T12:40:05.475Z,30
2018-07-31T12:42:05.394Z,30
2018-07-31T12:44:10.173Z,30.1
2018-07-31T12:46:05.326Z,30.1
2018-07-31T12:48:08.046Z,30.2
2018-07-31T12:50:05.137Z,30.2
2018-07-31T12:52:05.096Z,30.2
2018-07-31T12:54:07.349Z,30.2
2018-07-31T12:56:07.604Z,30.3
2018-07-31T12:58:04.863Z,30.3
2018-07-31T13:00:05.686Z,30.3
2018-07-31T13:02:04.945Z,30.4
2018-07-31T13:04:07.768Z,30.2
2018-07-31T13:06:05.021Z,30.2
2018-07-31T13:08:04.723Z,30.3
2018-07-31T13:10:10.556Z,30.1
2018-07-31T13:12:07.851Z,30.2
2018-07-31T13:14:05.580Z,30.2
2018-07-31T13:16:05.339Z,30.3
2018-07-31T13:18:04.922Z,30.3
2018-07-31T13:20:04.725Z,30.4
2018-07-31T13:22:05.477Z,30.3
2018-07-31T13:24:05.243Z,30.4
2018-07-31T13:26:05.509Z,30.4
2018-07-31T13:28:05.256Z,30.4
2018-07-31T13:30:04.981Z,30.5
2018-07-31T13:32:04.708Z,30.4
2018-07-31T13:34:05.432Z,30.4
2018-07-31T13:36:04.638Z,30.4
2018-07-31T13:38:05.356Z,30.4
2018-07-31T13:40:05.047Z,30.4
2018-07-31T13:42:04.745Z,30.5
2018-07-31T13:44:08.253Z,30.5
2018-07-31T13:46:05.198Z,30.4
2018-07-31T13:48:07.919Z,30.5
2018-07-31T13:50:05.094Z,30.4
2018-07-31T13:52:04.767Z,30.3
2018-07-31T13:54:10.468Z,30.4
2018-07-31T13:56:07.249Z,30.4
2018-07-31T13:58:04.923Z,30.4
2018-07-31T14:00:04.655Z,30.5
2018-07-31T14:02:05.421Z,30.5
2018-07-31T14:04:05.196Z,30.5
2018-07-31T14:06:05.164Z,30.5
2018-07-31T14:08:04.933Z,30.4
2018-07-31T14:10:05.630Z,30.5
2018-07-31T14:12:05.410Z,30.5
2018-07-31T14:14:05.153Z,30.5
2018-07-31T14:16:04.817Z,30.5
2018-07-31T14:18:04.721Z,30.6
2018-07-31T14:20:05.347Z,30.5
2018-07-31T14:22:10.203Z,30.5
2018-07-31T14:24:05.402Z,30.5
2018-07-31T14:26:05.058Z,30.5
2018-07-31T14:28:04.862Z,30.5
2018-07-31T14:30:05.512Z,30.5
2018-07-31T14:32:05.199Z,30.6
2018-07-31T14:34:04.882Z,30.5
2018-07-31T14:36:08.103Z,30.6
2018-07-31T14:38:04.797Z,30.6
2018-07-31T14:40:10.501Z,30.5
2018-07-31T14:42:07.267Z,30.5
2018-07-31T14:44:10.031Z,30.6
2018-07-31T14:46:04.699Z,30.6
2018-07-31T14:48:05.457Z,30.5
2018-07-31T14:50:05.147Z,30.5
2018-07-31T14:52:05.585Z,30.5
2018-07-31T14:54:04.937Z,30.5
2018-07-31T14:56:07.417Z,30.5
2018-07-31T14:58:07.626Z,30.5
2018-07-31T15:00:07.854Z,30.5
2018-07-31T15:02:04.810Z,30.6
2018-07-31T15:04:08.050Z,30.6
2018-07-31T15:06:09.766Z,30.5
2018-07-31T15:08:05.474Z,30.5
2018-07-31T15:10:07.701Z,30.5
2018-07-31T15:12:04.873Z,30.5
2018-07-31T15:14:05.571Z,30.5
2018-07-31T15:16:05.287Z,30.6
2018-07-31T15:18:05.163Z,30.5
2018-07-31T15:20:05.115Z,30.5
2018-07-31T15:22:07.322Z,30.5
2018-07-31T15:24:04.976Z,30.5
2018-07-31T15:26:04.662Z,30.5
2018-07-31T15:28:05.324Z,30.5
2018-07-31T15:30:04.869Z,30.5
2018-07-31T15:32:05.499Z,30.5
2018-07-31T15:34:05.155Z,30.6
2018-07-31T15:36:05.411Z,30.6
2018-07-31T15:38:05.138Z,30.5
2018-07-31T15:40:04.814Z,30.6
2018-07-31T15:42:10.549Z,30.7
2018-07-31T15:44:05.291Z,30.7
2018-07-31T15:46:12.551Z,30.7
2018-07-31T15:48:05.512Z,30.6
2018-07-31T15:50:08.018Z,30.7
2018-07-31T15:52:04.683Z,30.7
2018-07-31T15:54:07.970Z,30.7
2018-07-31T15:56:07.298Z,30.6
2018-07-31T15:58:04.975Z,30.6
2018-07-31T16:00:07.220Z,30.8
2018-07-31T16:02:04.949Z,30.8
2018-07-31T16:04:05.129Z,30.9
2018-07-31T16:06:04.802Z,30.8
2018-07-31T16:08:05.538Z,30.7
2018-07-31T16:10:05.348Z,30.7
2018-07-31T16:12:05.055Z,30.7
2018-07-31T16:14:04.879Z,30.7
2018-07-31T16:16:05.525Z,30.8
2018-07-31T16:18:05.385Z,30.7
2018-07-31T16:20:05.379Z,30.7
2018-07-31T16:22:05.615Z,30.7
2018-07-31T16:24:05.232Z,30.8
2018-07-31T16:26:10.120Z,30.8
2018-07-31T16:28:04.869Z,30.8
2018-07-31T16:30:05.655Z,30.8
2018-07-31T16:32:05.454Z,30.8
2018-07-31T16:34:04.699Z,30.8
2018-07-31T16:36:07.237Z,30.9
2018-07-31T16:38:04.921Z,30.9
2018-07-31T16:40:09.710Z,30.8
2018-07-31T16:42:10.427Z,30.8
2018-07-31T16:44:05.143Z,30.8
2018-07-31T16:46:07.371Z,30.8
2018-07-31T16:48:04.766Z,30.8
2018-07-31T16:50:05.542Z,30.9
2018-07-31T16:52:05.295Z,30.9
2018-07-31T16:54:05.191Z,30.8
2018-07-31T16:56:05.532Z,30.9
2018-07-31T16:58:05.487Z,31
2018-07-31T17:00:05.267Z,31
2018-07-31T17:02:04.996Z,31
2018-07-31T17:04:05.701Z,31
2018-07-31T17:06:05.624Z,31
2018-07-31T17:08:05.355Z,31
2018-07-31T17:10:05.010Z,31
2018-07-31T17:12:04.738Z,31
2018-07-31T17:14:05.524Z,31
2018-07-31T17:16:05.226Z,31
2018-07-31T17:18:07.761Z,31
2018-07-31T17:20:05.436Z,30.9
2018-07-31T17:22:07.177Z,31
2018-07-31T17:24:04.901Z,31
2018-07-31T17:26:05.241Z,31
2018-07-31T17:28:04.935Z,31
2018-07-31T17:30:04.773Z,31.1
2018-07-31T17:32:04.998Z,31
2018-07-31T17:34:07.272Z,31.1
2018-07-31T17:36:04.996Z,31
2018-07-31T17:38:04.672Z,31
2018-07-31T17:40:05.411Z,31
2018-07-31T17:42:10.157Z,30.8
2018-07-31T17:44:04.849Z,30.8
2018-07-31T17:46:04.662Z,30.8
2018-07-31T17:48:08.041Z,30.9
2018-07-31T17:50:05.474Z,30.8
2018-07-31T17:52:07.700Z,30.9
2018-07-31T17:54:05.378Z,30.8
2018-07-31T17:56:15.256Z,30.9
2018-07-31T17:58:04.917Z,30.9
2018-07-31T18:00:10.836Z,30.8
2018-07-31T18:02:05.526Z,30.8
2018-07-31T18:04:06.210Z,30.8
2018-07-31T18:06:05.420Z,30.9
2018-07-31T18:08:05.139Z,30.8
2018-07-31T18:10:04.875Z,30.8
2018-07-31T18:12:05.624Z,30.7
2018-07-31T18:14:09.957Z,30.8
2018-07-31T18:16:15.545Z,30.8
2018-07-31T18:18:05.394Z,30.8
2018-07-31T18:20:07.577Z,30.9
2018-07-31T18:22:04.800Z,30.9
2018-07-31T18:24:08.033Z,30.9
2018-07-31T18:26:05.108Z,30.9
2018-07-31T18:28:07.354Z,30.9
2018-07-31T18:30:07.618Z,30.9
2018-07-31T18:32:04.842Z,30.9
2018-07-31T18:34:05.562Z,30.9
2018-07-31T18:36:05.245Z,31
2018-07-31T18:38:04.931Z,31
2018-07-31T18:40:04.625Z,31
2018-07-31T18:42:05.296Z,31
2018-07-31T18:44:04.815Z,31
2018-07-31T18:46:08.080Z,31
2018-07-31T18:48:04.850Z,31
2018-07-31T18:50:10.651Z,31.1
2018-07-31T18:52:04.883Z,31.1
2018-07-31T18:54:05.607Z,31.1
2018-07-31T18:56:05.301Z,31.1
2018-07-31T18:58:07.604Z,31
2018-07-31T19:00:05.286Z,31
2018-07-31T19:02:07.583Z,31
2018-07-31T19:04:05.225Z,31
2018-07-31T19:06:04.902Z,31
2018-07-31T19:08:05.596Z,30.9
2018-07-31T19:10:12.917Z,30.9
2018-07-31T19:12:05.585Z,30.9
2018-07-31T19:14:10.352Z,30.9
2018-07-31T19:16:07.556Z,30.9
2018-07-31T19:18:04.642Z,31
2018-07-31T19:20:05.300Z,30.9
2018-07-31T19:22:08.076Z,30.9
2018-07-31T19:24:04.805Z,30.8
2018-07-31T19:26:15.287Z,30.7
2018-07-31T19:28:05.279Z,30.7
2018-07-31T19:30:04.796Z,30.7
2018-07-31T19:32:08.058Z,30.7
2018-07-31T19:34:04.972Z,30.7
2018-07-31T19:36:04.879Z,30.8
2018-07-31T19:38:05.637Z,30.8
2018-07-31T19:40:10.407Z,30.6
2018-07-31T19:42:05.253Z,30.6
2018-07-31T19:44:05.134Z,30.7
2018-07-31T19:46:05.456Z,30.6
2018-07-31T19:48:07.709Z,30.7
2018-07-31T19:50:05.412Z,30.7
2018-07-31T19:52:04.726Z,30.7
2018-07-31T19:54:04.694Z,30.6
2018-07-31T19:56:07.979Z,30.6
2018-07-31T19:58:04.804Z,30.6
2018-07-31T20:00:08.170Z,30.5
2018-07-31T20:02:05.615Z,30.5
2018-07-31T20:04:05.537Z,30.5
2018-07-31T20:06:08.018Z,30.5
2018-07-31T20:08:05.232Z,30.5
2018-07-31T20:10:04.953Z,30.5
2018-07-31T20:12:04.645Z,30.6
2018-07-31T20:14:05.359Z,30.5
2018-07-31T20:16:05.015Z,30.5
2018-07-31T20:18:04.953Z,30.5
2018-07-31T20:20:04.626Z,30.5
2018-07-31T20:22:07.889Z,30.5
2018-07-31T20:24:05.584Z,30.5
2018-07-31T20:26:04.909Z,30.4
2018-07-31T20:28:05.557Z,30.3
2018-07-31T20:30:05.371Z,30.2
2018-07-31T20:32:05.054Z,30.3
2018-07-31T20:34:07.247Z,30.3
2018-07-31T20:36:07.464Z,30.4
2018-07-31T20:38:10.299Z,30.4
2018-07-31T20:40:10.001Z,30.5
2018-07-31T20:42:04.647Z,30.5
2018-07-31T20:44:05.333Z,30.5
2018-07-31T20:46:05.570Z,30.5
2018-07-31T20:48:05.406Z,30.5
2018-07-31T20:50:05.130Z,30.6
2018-07-31T20:52:07.852Z,30.5
2018-07-31T20:54:05.558Z,30.4
2018-07-31T20:56:05.197Z,30.5
2018-07-31T20:58:07.949Z,30.6
2018-07-31T21:00:05.296Z,30.6
2018-07-31T21:02:05.009Z,30.6
2018-07-31T21:04:04.963Z,30.5
2018-07-31T21:06:05.271Z,30.6
2018-07-31T21:08:05.029Z,30.6
2018-07-31T21:10:14.848Z,30.4
2018-07-31T21:12:05.525Z,30.4
2018-07-31T21:14:10.310Z,30.5
2018-07-31T21:16:05.469Z,30.5
2018-07-31T21:18:05.380Z,30.6
2018-07-31T21:20:07.772Z,30.6
2018-07-31T21:22:05.430Z,30.6
2018-07-31T21:24:05.627Z,30.7
2018-07-31T21:26:05.369Z,30.7
2018-07-31T21:28:05.031Z,30.5
2018-07-31T21:30:04.857Z,30.6
2018-07-31T21:32:08.070Z,30.6
2018-07-31T21:34:05.339Z,30.6
2018-07-31T21:36:05.003Z,30.6
2018-07-31T21:38:07.405Z,30.5
2018-07-31T21:40:05.066Z,30.5
2018-07-31T21:42:04.768Z,30.5
2018-07-31T21:44:05.547Z,30.6
2018-07-31T21:46:05.360Z,30.6
2018-07-31T21:48:05.699Z,30.5
2018-07-31T21:50:04.919Z,30.5
2018-07-31T21:52:08.135Z,30.6
2018-07-31T21:54:04.845Z,30.6
2018-07-31T21:56:05.615Z,30.5
2018-07-31T21:58:05.079Z,30.4
2018-07-31T22:00:04.741Z,30.5
2018-07-31T22:02:07.541Z,30.5
2018-07-31T22:04:05.264Z,30.5
2018-07-31T22:06:05.549Z,30.5
2018-07-31T22:08:07.928Z,30.6
2018-07-31T22:10:06.324Z,30.6
2018-07-31T22:12:05.075Z,30.6
2018-07-31T22:14:05.331Z,30.6
2018-07-31T22:16:05.056Z,30.5
2018-07-31T22:18:07.449Z,30.6
2018-07-31T22:20:04.699Z,30.6
2018-07-31T22:22:10.460Z,30.5
2018-07-31T22:24:04.637Z,30.6
2018-07-31T22:26:05.413Z,30.4
2018-07-31T22:28:10.162Z,30.5
2018-07-31T22:30:04.934Z,30.5
2018-07-31T22:32:04.990Z,30.4
2018-07-31T22:34:04.662Z,30.3
2018-07-31T22:36:07.860Z,30.2
2018-07-31T22:38:05.190Z,30.2
2018-07-31T22:40:07.507Z,30.4
2018-07-31T22:42:04.846Z,30.4
2018-07-31T22:44:05.517Z,30.5
2018-07-31T22:46:05.272Z,30.3
2018-07-31T22:48:04.977Z,30.3
2018-07-31T22:50:04.687Z,30.2
2018-07-31T22:52:05.437Z,30.2
2018-07-31T22:54:05.258Z,30.2
2018-07-31T22:56:04.954Z,30.3
2018-07-31T22:58:10.228Z,30.3
2018-07-31T23:00:04.912Z,30.3
2018-07-31T23:02:05.599Z,30.4
2018-07-31T23:04:05.268Z,30.5
2018-07-31T23:06:07.525Z,30.5
2018-07-31T23:08:05.430Z,30.4
2018-07-31T23:10:05.141Z,30.5
2018-07-31T23:12:05.601Z,30.6
2018-07-31T23:14:05.365Z,30.6
2018-07-31T23:16:04.864Z,30.6
2018-07-31T23:18:05.290Z,30.6
2018-07-31T23:20:08.063Z,30.6
2018-07-31T23:22:07.309Z,30.6
2018-07-31T23:24:12.570Z,30.6
2018-07-31T23:26:05.293Z,30.6
2018-07-31T23:28:05.033Z,30.6
2018-07-31T23:30:04.785Z,30.6
2018-07-31T23:32:07.978Z,30.6
2018-07-31T23:34:07.700Z,30.6
2018-07-31T23:36:18.012Z,30.6
2018-07-31T23:38:09.834Z,30.6
2018-07-31T23:40:05.151Z,30.6
2018-07-31T23:42:07.431Z,30.6
2018-07-31T23:44:05.163Z,30.6
2018-07-31T23:46:05.393Z,30.6
2018-07-31T23:48:05.082Z,30.6
2018-07-31T23:50:09.881Z,30.5
2018-07-31T23:52:05.548Z,30.5
2018-07-31T23:54:05.245Z,30.6
2018-07-31T23:56:07.538Z,30.3
2018-07-31T23:58:07.745Z,30.4
